sensor_id;sensor_type;location;lat;lon;timestamp;P1;durP1;ratioP1;P2;durP2;ratioP2
13973;SDS011;7060;43.770;4.008;2024-01-30T00:01:42;15.83;;;12.63;;
13973;SDS011;7060;43.770;4.008;2024-01-30T00:04:10;19.73;;;14.07;;
13973;SDS011;7060;43.770;4.008;2024-01-30T00:06:38;20.27;;;14.60;;
13973;SDS011;7060;43.770;4.008;2024-01-30T00:09:07;19.70;;;13.13;;
13973;SDS011;7060;43.770;4.008;2024-01-30T00:11:35;17.87;;;13.10;;
13973;SDS011;7060;43.770;4.008;2024-01-30T00:14:03;17.67;;;11.57;;
13973;SDS011;7060;43.770;4.008;2024-01-30T00:16:32;15.90;;;11.37;;
13973;SDS011;7060;43.770;4.008;2024-01-30T00:19:01;15.67;;;11.33;;
13973;SDS011;7060;43.770;4.008;2024-01-30T00:21:30;20.73;;;11.83;;
13973;SDS011;7060;43.770;4.008;2024-01-30T00:23:58;17.13;;;12.00;;
13973;SDS011;7060;43.770;4.008;2024-01-30T00:26:26;15.93;;;12.83;;
13973;SDS011;7060;43.770;4.008;2024-01-30T00:28:54;19.67;;;13.43;;
13973;SDS011;7060;43.770;4.008;2024-01-30T00:31:22;20.10;;;13.27;;
13973;SDS011;7060;43.770;4.008;2024-01-30T00:33:50;21.73;;;16.07;;
13973;SDS011;7060;43.770;4.008;2024-01-30T00:36:20;21.23;;;14.90;;
13973;SDS011;7060;43.770;4.008;2024-01-30T00:38:48;18.63;;;14.33;;
13973;SDS011;7060;43.770;4.008;2024-01-30T00:41:17;20.97;;;14.50;;
13973;SDS011;7060;43.770;4.008;2024-01-30T00:43:45;18.83;;;14.40;;
13973;SDS011;7060;43.770;4.008;2024-01-30T00:46:13;17.27;;;13.20;;
13973;SDS011;7060;43.770;4.008;2024-01-30T00:48:41;17.97;;;12.17;;
13973;SDS011;7060;43.770;4.008;2024-01-30T00:51:10;25.77;;;14.93;;
13973;SDS011;7060;43.770;4.008;2024-01-30T00:53:39;20.80;;;15.17;;
13973;SDS011;7060;43.770;4.008;2024-01-30T00:56:08;20.23;;;14.83;;
13973;SDS011;7060;43.770;4.008;2024-01-30T00:58:36;21.50;;;14.50;;
13973;SDS011;7060;43.770;4.008;2024-01-30T01:01:04;18.90;;;14.40;;
13973;SDS011;7060;43.770;4.008;2024-01-30T01:03:34;19.97;;;14.80;;
13973;SDS011;7060;43.770;4.008;2024-01-30T01:06:02;19.43;;;13.80;;
13973;SDS011;7060;43.770;4.008;2024-01-30T01:08:31;19.33;;;15.60;;
13973;SDS011;7060;43.770;4.008;2024-01-30T01:11:00;20.40;;;13.57;;
13973;SDS011;7060;43.770;4.008;2024-01-30T01:13:30;16.37;;;12.47;;
13973;SDS011;7060;43.770;4.008;2024-01-30T01:15:58;17.40;;;13.57;;
13973;SDS011;7060;43.770;4.008;2024-01-30T01:18:26;16.30;;;13.67;;
13973;SDS011;7060;43.770;4.008;2024-01-30T01:20:54;16.80;;;12.17;;
13973;SDS011;7060;43.770;4.008;2024-01-30T01:23:22;19.83;;;13.17;;
13973;SDS011;7060;43.770;4.008;2024-01-30T01:25:50;20.63;;;13.97;;
13973;SDS011;7060;43.770;4.008;2024-01-30T01:28:20;14.47;;;12.17;;
13973;SDS011;7060;43.770;4.008;2024-01-30T01:30:48;19.33;;;13.03;;
13973;SDS011;7060;43.770;4.008;2024-01-30T01:33:16;19.67;;;12.73;;
13973;SDS011;7060;43.770;4.008;2024-01-30T01:35:45;15.87;;;12.53;;
13973;SDS011;7060;43.770;4.008;2024-01-30T01:38:13;20.03;;;11.33;;
13973;SDS011;7060;43.770;4.008;2024-01-30T01:40:41;16.53;;;12.20;;
13973;SDS011;7060;43.770;4.008;2024-01-30T01:43:10;17.23;;;10.87;;
13973;SDS011;7060;43.770;4.008;2024-01-30T01:45:39;13.43;;;10.13;;
13973;SDS011;7060;43.770;4.008;2024-01-30T01:48:08;13.63;;;10.77;;
13973;SDS011;7060;43.770;4.008;2024-01-30T01:50:37;14.10;;;11.73;;
13973;SDS011;7060;43.770;4.008;2024-01-30T01:53:07;13.23;;;10.73;;
13973;SDS011;7060;43.770;4.008;2024-01-30T01:55:35;14.03;;;10.93;;
13973;SDS011;7060;43.770;4.008;2024-01-30T01:58:04;16.10;;;12.83;;
13973;SDS011;7060;43.770;4.008;2024-01-30T02:00:33;16.00;;;12.90;;
13973;SDS011;7060;43.770;4.008;2024-01-30T02:03:03;14.17;;;10.97;;
13973;SDS011;7060;43.770;4.008;2024-01-30T02:05:33;16.23;;;11.27;;
13973;SDS011;7060;43.770;4.008;2024-01-30T02:08:01;16.63;;;13.03;;
13973;SDS011;7060;43.770;4.008;2024-01-30T02:10:31;17.40;;;13.90;;
13973;SDS011;7060;43.770;4.008;2024-01-30T02:12:59;17.20;;;14.00;;
13973;SDS011;7060;43.770;4.008;2024-01-30T02:15:27;17.23;;;12.87;;
13973;SDS011;7060;43.770;4.008;2024-01-30T02:17:55;15.40;;;12.67;;
13973;SDS011;7060;43.770;4.008;2024-01-30T02:20:25;21.00;;;13.27;;
13973;SDS011;7060;43.770;4.008;2024-01-30T02:22:58;15.30;;;12.13;;
13973;SDS011;7060;43.770;4.008;2024-01-30T02:25:33;14.67;;;12.23;;
13973;SDS011;7060;43.770;4.008;2024-01-30T02:28:03;11.47;;;10.13;;
13973;SDS011;7060;43.770;4.008;2024-01-30T02:30:32;12.47;;;9.90;;
13973;SDS011;7060;43.770;4.008;2024-01-30T02:33:00;13.23;;;10.80;;
13973;SDS011;7060;43.770;4.008;2024-01-30T02:35:28;12.10;;;9.57;;
13973;SDS011;7060;43.770;4.008;2024-01-30T02:37:57;13.70;;;10.63;;
13973;SDS011;7060;43.770;4.008;2024-01-30T02:40:25;13.67;;;11.20;;
13973;SDS011;7060;43.770;4.008;2024-01-30T02:42:53;19.70;;;12.17;;
13973;SDS011;7060;43.770;4.008;2024-01-30T02:45:22;16.63;;;11.80;;
13973;SDS011;7060;43.770;4.008;2024-01-30T02:47:50;18.13;;;12.63;;
13973;SDS011;7060;43.770;4.008;2024-01-30T02:50:19;14.90;;;10.93;;
13973;SDS011;7060;43.770;4.008;2024-01-30T02:52:47;13.90;;;11.53;;
13973;SDS011;7060;43.770;4.008;2024-01-30T02:55:16;19.90;;;12.73;;
13973;SDS011;7060;43.770;4.008;2024-01-30T02:57:45;14.70;;;10.93;;
13973;SDS011;7060;43.770;4.008;2024-01-30T03:00:13;14.43;;;11.53;;
13973;SDS011;7060;43.770;4.008;2024-01-30T03:02:42;15.00;;;11.57;;
13973;SDS011;7060;43.770;4.008;2024-01-30T03:05:10;19.93;;;12.00;;
13973;SDS011;7060;43.770;4.008;2024-01-30T03:07:37;14.60;;;12.30;;
13973;SDS011;7060;43.770;4.008;2024-01-30T03:10:05;16.30;;;11.90;;
13973;SDS011;7060;43.770;4.008;2024-01-30T03:12:35;16.23;;;11.03;;
13973;SDS011;7060;43.770;4.008;2024-01-30T03:15:04;16.87;;;11.33;;
13973;SDS011;7060;43.770;4.008;2024-01-30T03:17:32;14.43;;;10.63;;
13973;SDS011;7060;43.770;4.008;2024-01-30T03:20:00;16.60;;;11.70;;
13973;SDS011;7060;43.770;4.008;2024-01-30T03:22:30;16.83;;;11.30;;
13973;SDS011;7060;43.770;4.008;2024-01-30T03:24:58;15.37;;;12.33;;
13973;SDS011;7060;43.770;4.008;2024-01-30T03:27:26;14.73;;;10.00;;
13973;SDS011;7060;43.770;4.008;2024-01-30T03:29:56;14.73;;;10.33;;
13973;SDS011;7060;43.770;4.008;2024-01-30T03:32:24;13.63;;;10.43;;
13973;SDS011;7060;43.770;4.008;2024-01-30T03:34:53;13.23;;;10.03;;
13973;SDS011;7060;43.770;4.008;2024-01-30T03:37:21;17.70;;;10.97;;
13973;SDS011;7060;43.770;4.008;2024-01-30T03:39:49;14.20;;;11.07;;
13973;SDS011;7060;43.770;4.008;2024-01-30T03:42:18;15.70;;;11.07;;
13973;SDS011;7060;43.770;4.008;2024-01-30T03:44:46;13.53;;;11.30;;
13973;SDS011;7060;43.770;4.008;2024-01-30T03:47:16;15.07;;;11.23;;
13973;SDS011;7060;43.770;4.008;2024-01-30T03:49:44;15.03;;;11.93;;
13973;SDS011;7060;43.770;4.008;2024-01-30T03:52:12;16.13;;;11.77;;
13973;SDS011;7060;43.770;4.008;2024-01-30T03:54:40;15.07;;;10.87;;
13973;SDS011;7060;43.770;4.008;2024-01-30T03:57:08;17.10;;;11.47;;
13973;SDS011;7060;43.770;4.008;2024-01-30T03:59:36;13.13;;;10.97;;
13973;SDS011;7060;43.770;4.008;2024-01-30T04:02:04;10.63;;;8.93;;
13973;SDS011;7060;43.770;4.008;2024-01-30T04:04:34;13.17;;;9.93;;
13973;SDS011;7060;43.770;4.008;2024-01-30T04:07:03;12.27;;;10.97;;
13973;SDS011;7060;43.770;4.008;2024-01-30T04:09:31;12.40;;;10.07;;
13973;SDS011;7060;43.770;4.008;2024-01-30T04:12:00;13.27;;;9.47;;
13973;SDS011;7060;43.770;4.008;2024-01-30T04:14:29;14.00;;;10.37;;
13973;SDS011;7060;43.770;4.008;2024-01-30T04:16:57;13.03;;;9.17;;
13973;SDS011;7060;43.770;4.008;2024-01-30T04:19:25;10.77;;;8.73;;
13973;SDS011;7060;43.770;4.008;2024-01-30T04:21:55;12.07;;;10.23;;
13973;SDS011;7060;43.770;4.008;2024-01-30T04:24:24;12.37;;;9.47;;
13973;SDS011;7060;43.770;4.008;2024-01-30T04:26:52;15.70;;;11.33;;
13973;SDS011;7060;43.770;4.008;2024-01-30T04:29:20;11.53;;;9.33;;
13973;SDS011;7060;43.770;4.008;2024-01-30T04:31:49;11.27;;;9.47;;
13973;SDS011;7060;43.770;4.008;2024-01-30T04:34:17;18.53;;;11.43;;
13973;SDS011;7060;43.770;4.008;2024-01-30T04:36:45;14.87;;;10.43;;
13973;SDS011;7060;43.770;4.008;2024-01-30T04:39:14;12.60;;;8.80;;
13973;SDS011;7060;43.770;4.008;2024-01-30T04:41:43;12.33;;;9.47;;
13973;SDS011;7060;43.770;4.008;2024-01-30T04:44:11;13.23;;;9.57;;
13973;SDS011;7060;43.770;4.008;2024-01-30T04:46:39;12.47;;;8.80;;
13973;SDS011;7060;43.770;4.008;2024-01-30T04:49:07;12.73;;;9.20;;
13973;SDS011;7060;43.770;4.008;2024-01-30T04:51:35;11.00;;;8.60;;
13973;SDS011;7060;43.770;4.008;2024-01-30T04:54:03;10.00;;;8.57;;
13973;SDS011;7060;43.770;4.008;2024-01-30T04:56:33;15.37;;;9.30;;
13973;SDS011;7060;43.770;4.008;2024-01-30T04:59:02;10.87;;;8.57;;
13973;SDS011;7060;43.770;4.008;2024-01-30T05:01:30;12.63;;;8.50;;
13973;SDS011;7060;43.770;4.008;2024-01-30T05:03:58;12.47;;;8.80;;
13973;SDS011;7060;43.770;4.008;2024-01-30T05:06:27;16.90;;;9.47;;
13973;SDS011;7060;43.770;4.008;2024-01-30T05:08:56;13.87;;;9.77;;
13973;SDS011;7060;43.770;4.008;2024-01-30T05:11:24;16.93;;;9.90;;
13973;SDS011;7060;43.770;4.008;2024-01-30T05:13:54;15.07;;;10.53;;
13973;SDS011;7060;43.770;4.008;2024-01-30T05:16:22;14.07;;;9.43;;
13973;SDS011;7060;43.770;4.008;2024-01-30T05:18:50;12.33;;;9.27;;
13973;SDS011;7060;43.770;4.008;2024-01-30T05:21:18;14.00;;;9.77;;
13973;SDS011;7060;43.770;4.008;2024-01-30T05:23:46;12.90;;;9.80;;
13973;SDS011;7060;43.770;4.008;2024-01-30T05:26:14;11.93;;;8.67;;
13973;SDS011;7060;43.770;4.008;2024-01-30T05:28:43;13.83;;;10.13;;
13973;SDS011;7060;43.770;4.008;2024-01-30T05:31:13;12.63;;;9.63;;
13973;SDS011;7060;43.770;4.008;2024-01-30T05:33:41;12.70;;;9.30;;
13973;SDS011;7060;43.770;4.008;2024-01-30T05:36:11;14.03;;;9.40;;
13973;SDS011;7060;43.770;4.008;2024-01-30T05:38:39;10.47;;;9.40;;
13973;SDS011;7060;43.770;4.008;2024-01-30T05:41:08;11.63;;;9.27;;
13973;SDS011;7060;43.770;4.008;2024-01-30T05:43:36;12.17;;;9.50;;
13973;SDS011;7060;43.770;4.008;2024-01-30T05:46:04;14.30;;;8.80;;
13973;SDS011;7060;43.770;4.008;2024-01-30T05:48:33;12.27;;;9.97;;
13973;SDS011;7060;43.770;4.008;2024-01-30T05:51:02;12.37;;;9.33;;
13973;SDS011;7060;43.770;4.008;2024-01-30T05:53:30;10.43;;;8.80;;
13973;SDS011;7060;43.770;4.008;2024-01-30T05:55:59;10.43;;;8.37;;
13973;SDS011;7060;43.770;4.008;2024-01-30T05:58:27;14.27;;;8.67;;
13973;SDS011;7060;43.770;4.008;2024-01-30T06:00:55;12.17;;;9.60;;
13973;SDS011;7060;43.770;4.008;2024-01-30T06:03:24;12.03;;;9.93;;
13973;SDS011;7060;43.770;4.008;2024-01-30T06:05:54;11.03;;;9.67;;
13973;SDS011;7060;43.770;4.008;2024-01-30T06:08:22;14.00;;;10.00;;
13973;SDS011;7060;43.770;4.008;2024-01-30T06:10:50;14.10;;;9.80;;
13973;SDS011;7060;43.770;4.008;2024-01-30T06:13:19;11.00;;;9.50;;
13973;SDS011;7060;43.770;4.008;2024-01-30T06:15:47;11.90;;;9.17;;
13973;SDS011;7060;43.770;4.008;2024-01-30T06:18:15;13.53;;;10.20;;
13973;SDS011;7060;43.770;4.008;2024-01-30T06:20:44;15.80;;;10.10;;
13973;SDS011;7060;43.770;4.008;2024-01-30T06:23:13;10.30;;;8.47;;
13973;SDS011;7060;43.770;4.008;2024-01-30T06:25:42;10.50;;;8.70;;
13973;SDS011;7060;43.770;4.008;2024-01-30T06:28:10;16.27;;;9.27;;
13973;SDS011;7060;43.770;4.008;2024-01-30T06:30:38;11.70;;;9.37;;
13973;SDS011;7060;43.770;4.008;2024-01-30T06:33:06;12.70;;;9.03;;
13973;SDS011;7060;43.770;4.008;2024-01-30T06:35:34;11.23;;;9.13;;
13973;SDS011;7060;43.770;4.008;2024-01-30T06:38:10;11.13;;;8.33;;
13973;SDS011;7060;43.770;4.008;2024-01-30T06:40:39;10.47;;;9.37;;
13973;SDS011;7060;43.770;4.008;2024-01-30T06:43:07;10.33;;;8.97;;
13973;SDS011;7060;43.770;4.008;2024-01-30T06:45:36;14.90;;;10.90;;
13973;SDS011;7060;43.770;4.008;2024-01-30T06:48:04;12.97;;;10.60;;
13973;SDS011;7060;43.770;4.008;2024-01-30T06:50:33;16.07;;;10.40;;
13973;SDS011;7060;43.770;4.008;2024-01-30T06:53:01;14.60;;;10.93;;
13973;SDS011;7060;43.770;4.008;2024-01-30T06:55:29;14.50;;;10.23;;
13973;SDS011;7060;43.770;4.008;2024-01-30T06:57:58;14.83;;;10.77;;
13973;SDS011;7060;43.770;4.008;2024-01-30T07:00:27;12.67;;;9.93;;
13973;SDS011;7060;43.770;4.008;2024-01-30T07:02:55;15.70;;;10.57;;
13973;SDS011;7060;43.770;4.008;2024-01-30T07:05:23;13.37;;;10.07;;
13973;SDS011;7060;43.770;4.008;2024-01-30T07:07:51;13.93;;;10.90;;
13973;SDS011;7060;43.770;4.008;2024-01-30T07:10:19;15.90;;;12.77;;
13973;SDS011;7060;43.770;4.008;2024-01-30T07:12:48;15.30;;;12.97;;
13973;SDS011;7060;43.770;4.008;2024-01-30T07:15:17;16.77;;;12.83;;
13973;SDS011;7060;43.770;4.008;2024-01-30T07:17:50;16.27;;;10.73;;
13973;SDS011;7060;43.770;4.008;2024-01-30T07:20:18;21.20;;;12.80;;
13973;SDS011;7060;43.770;4.008;2024-01-30T07:22:50;16.20;;;13.23;;
13973;SDS011;7060;43.770;4.008;2024-01-30T07:25:18;19.97;;;10.43;;
13973;SDS011;7060;43.770;4.008;2024-01-30T07:27:48;12.37;;;10.10;;
13973;SDS011;7060;43.770;4.008;2024-01-30T07:30:18;13.47;;;10.63;;
13973;SDS011;7060;43.770;4.008;2024-01-30T07:32:46;14.13;;;10.60;;
13973;SDS011;7060;43.770;4.008;2024-01-30T07:35:14;19.20;;;10.27;;
13973;SDS011;7060;43.770;4.008;2024-01-30T07:37:43;13.57;;;9.83;;
13973;SDS011;7060;43.770;4.008;2024-01-30T07:40:11;15.33;;;9.53;;
13973;SDS011;7060;43.770;4.008;2024-01-30T07:42:39;14.00;;;9.73;;
13973;SDS011;7060;43.770;4.008;2024-01-30T07:45:09;14.33;;;10.17;;
13973;SDS011;7060;43.770;4.008;2024-01-30T07:47:39;16.13;;;12.00;;
13973;SDS011;7060;43.770;4.008;2024-01-30T07:50:07;13.67;;;9.63;;
13973;SDS011;7060;43.770;4.008;2024-01-30T07:52:36;14.23;;;9.77;;
13973;SDS011;7060;43.770;4.008;2024-01-30T07:55:49;13.83;;;9.17;;
13973;SDS011;7060;43.770;4.008;2024-01-30T07:58:21;11.80;;;9.77;;
13973;SDS011;7060;43.770;4.008;2024-01-30T08:00:50;13.47;;;9.87;;
13973;SDS011;7060;43.770;4.008;2024-01-30T08:03:21;17.07;;;10.83;;
13973;SDS011;7060;43.770;4.008;2024-01-30T08:05:49;12.80;;;8.83;;
13973;SDS011;7060;43.770;4.008;2024-01-30T08:08:17;12.47;;;9.57;;
13973;SDS011;7060;43.770;4.008;2024-01-30T08:10:45;11.90;;;9.50;;
13973;SDS011;7060;43.770;4.008;2024-01-30T08:13:13;14.47;;;9.90;;
13973;SDS011;7060;43.770;4.008;2024-01-30T08:15:41;12.43;;;8.20;;
13973;SDS011;7060;43.770;4.008;2024-01-30T08:18:09;12.23;;;9.37;;
13973;SDS011;7060;43.770;4.008;2024-01-30T08:20:39;21.87;;;10.37;;
13973;SDS011;7060;43.770;4.008;2024-01-30T08:23:07;28.63;;;13.03;;
13973;SDS011;7060;43.770;4.008;2024-01-30T08:25:35;23.47;;;9.37;;
13973;SDS011;7060;43.770;4.008;2024-01-30T08:28:04;21.43;;;10.43;;
13973;SDS011;7060;43.770;4.008;2024-01-30T08:30:33;17.20;;;10.77;;
13973;SDS011;7060;43.770;4.008;2024-01-30T08:33:02;17.47;;;11.47;;
13973;SDS011;7060;43.770;4.008;2024-01-30T08:35:30;17.50;;;9.83;;
13973;SDS011;7060;43.770;4.008;2024-01-30T08:38:01;16.17;;;12.00;;
13973;SDS011;7060;43.770;4.008;2024-01-30T08:40:30;15.53;;;13.77;;
13973;SDS011;7060;43.770;4.008;2024-01-30T08:42:58;14.13;;;12.60;;
13973;SDS011;7060;43.770;4.008;2024-01-30T08:45:26;12.67;;;11.40;;
13973;SDS011;7060;43.770;4.008;2024-01-30T08:47:54;14.83;;;11.00;;
13973;SDS011;7060;43.770;4.008;2024-01-30T08:50:22;14.40;;;11.87;;
13973;SDS011;7060;43.770;4.008;2024-01-30T08:52:50;17.63;;;13.77;;
13973;SDS011;7060;43.770;4.008;2024-01-30T08:55:22;15.47;;;13.80;;
13973;SDS011;7060;43.770;4.008;2024-01-30T08:57:51;17.07;;;14.50;;
13973;SDS011;7060;43.770;4.008;2024-01-30T09:00:20;17.53;;;14.20;;
13973;SDS011;7060;43.770;4.008;2024-01-30T09:02:48;18.47;;;14.60;;
13973;SDS011;7060;43.770;4.008;2024-01-30T09:05:16;17.83;;;13.33;;
13973;SDS011;7060;43.770;4.008;2024-01-30T09:07:44;15.43;;;12.33;;
13973;SDS011;7060;43.770;4.008;2024-01-30T09:10:12;15.97;;;11.37;;
13973;SDS011;7060;43.770;4.008;2024-01-30T09:12:45;10.83;;;9.40;;
13973;SDS011;7060;43.770;4.008;2024-01-30T09:15:14;14.70;;;8.50;;
13973;SDS011;7060;43.770;4.008;2024-01-30T09:17:43;9.77;;;7.97;;
13973;SDS011;7060;43.770;4.008;2024-01-30T09:20:11;10.23;;;8.23;;
13973;SDS011;7060;43.770;4.008;2024-01-30T09:22:39;17.53;;;8.20;;
13973;SDS011;7060;43.770;4.008;2024-01-30T09:25:07;10.93;;;7.73;;
13973;SDS011;7060;43.770;4.008;2024-01-30T09:27:36;10.67;;;6.93;;
13973;SDS011;7060;43.770;4.008;2024-01-30T09:30:06;10.37;;;8.10;;
13973;SDS011;7060;43.770;4.008;2024-01-30T09:32:35;11.57;;;7.50;;
13973;SDS011;7060;43.770;4.008;2024-01-30T09:35:04;8.70;;;7.00;;
13973;SDS011;7060;43.770;4.008;2024-01-30T09:37:33;10.83;;;8.10;;
13973;SDS011;7060;43.770;4.008;2024-01-30T09:40:01;11.60;;;8.07;;
13973;SDS011;7060;43.770;4.008;2024-01-30T09:42:33;9.27;;;8.00;;
13973;SDS011;7060;43.770;4.008;2024-01-30T09:45:02;9.90;;;8.10;;
13973;SDS011;7060;43.770;4.008;2024-01-30T09:47:32;10.37;;;8.23;;
13973;SDS011;7060;43.770;4.008;2024-01-30T09:50:09;8.97;;;6.70;;
13973;SDS011;7060;43.770;4.008;2024-01-30T09:52:38;10.93;;;7.83;;
13973;SDS011;7060;43.770;4.008;2024-01-30T09:55:07;9.97;;;7.73;;
13973;SDS011;7060;43.770;4.008;2024-01-30T09:57:35;10.17;;;8.10;;
13973;SDS011;7060;43.770;4.008;2024-01-30T10:00:04;9.63;;;7.40;;
13973;SDS011;7060;43.770;4.008;2024-01-30T10:02:40;11.87;;;8.70;;
13973;SDS011;7060;43.770;4.008;2024-01-30T10:05:08;12.40;;;7.63;;
13973;SDS011;7060;43.770;4.008;2024-01-30T10:07:37;14.80;;;7.67;;
13973;SDS011;7060;43.770;4.008;2024-01-30T10:10:05;13.60;;;8.03;;
13973;SDS011;7060;43.770;4.008;2024-01-30T10:12:34;22.13;;;8.80;;
13973;SDS011;7060;43.770;4.008;2024-01-30T10:15:02;11.03;;;7.20;;
13973;SDS011;7060;43.770;4.008;2024-01-30T10:17:31;13.00;;;8.23;;
13973;SDS011;7060;43.770;4.008;2024-01-30T10:20:03;8.80;;;7.40;;
13973;SDS011;7060;43.770;4.008;2024-01-30T10:22:32;11.47;;;7.90;;
13973;SDS011;7060;43.770;4.008;2024-01-30T10:25:00;14.30;;;7.63;;
13973;SDS011;7060;43.770;4.008;2024-01-30T10:27:32;8.93;;;7.70;;
13973;SDS011;7060;43.770;4.008;2024-01-30T10:30:00;9.60;;;6.80;;
13973;SDS011;7060;43.770;4.008;2024-01-30T10:32:30;9.40;;;6.60;;
13973;SDS011;7060;43.770;4.008;2024-01-30T10:34:58;10.27;;;7.07;;
13973;SDS011;7060;43.770;4.008;2024-01-30T10:37:28;7.77;;;6.50;;
13973;SDS011;7060;43.770;4.008;2024-01-30T10:40:00;9.33;;;7.50;;
13973;SDS011;7060;43.770;4.008;2024-01-30T10:42:31;8.33;;;6.17;;
13973;SDS011;7060;43.770;4.008;2024-01-30T10:45:02;9.83;;;7.07;;
13973;SDS011;7060;43.770;4.008;2024-01-30T10:47:35;10.80;;;6.80;;
13973;SDS011;7060;43.770;4.008;2024-01-30T10:50:05;11.23;;;7.10;;
13973;SDS011;7060;43.770;4.008;2024-01-30T10:52:37;8.00;;;6.37;;
13973;SDS011;7060;43.770;4.008;2024-01-30T10:55:06;9.87;;;6.93;;
13973;SDS011;7060;43.770;4.008;2024-01-30T10:57:35;12.07;;;7.23;;
13973;SDS011;7060;43.770;4.008;2024-01-30T11:00:05;9.47;;;6.97;;
13973;SDS011;7060;43.770;4.008;2024-01-30T11:02:37;9.93;;;7.27;;
13973;SDS011;7060;43.770;4.008;2024-01-30T11:05:07;10.53;;;7.07;;
13973;SDS011;7060;43.770;4.008;2024-01-30T11:07:38;11.47;;;7.07;;
13973;SDS011;7060;43.770;4.008;2024-01-30T11:10:07;8.50;;;6.50;;
13973;SDS011;7060;43.770;4.008;2024-01-30T11:12:40;9.63;;;6.07;;
13973;SDS011;7060;43.770;4.008;2024-01-30T11:15:11;9.57;;;5.57;;
13973;SDS011;7060;43.770;4.008;2024-01-30T11:17:44;8.93;;;5.03;;
13973;SDS011;7060;43.770;4.008;2024-01-30T11:20:19;7.27;;;5.00;;
13973;SDS011;7060;43.770;4.008;2024-01-30T11:22:50;9.20;;;5.40;;
13973;SDS011;7060;43.770;4.008;2024-01-30T11:25:20;6.80;;;5.10;;
13973;SDS011;7060;43.770;4.008;2024-01-30T11:27:50;6.43;;;5.50;;
13973;SDS011;7060;43.770;4.008;2024-01-30T11:30:22;9.87;;;6.10;;
13973;SDS011;7060;43.770;4.008;2024-01-30T11:32:58;8.70;;;6.30;;
13973;SDS011;7060;43.770;4.008;2024-01-30T11:35:33;9.93;;;6.47;;
13973;SDS011;7060;43.770;4.008;2024-01-30T11:38:04;6.93;;;5.80;;
13973;SDS011;7060;43.770;4.008;2024-01-30T11:40:33;9.13;;;5.90;;
13973;SDS011;7060;43.770;4.008;2024-01-30T11:43:03;8.37;;;5.13;;
13973;SDS011;7060;43.770;4.008;2024-01-30T11:45:33;12.53;;;6.40;;
13973;SDS011;7060;43.770;4.008;2024-01-30T11:48:02;9.00;;;5.63;;
13973;SDS011;7060;43.770;4.008;2024-01-30T11:50:32;8.67;;;6.30;;
13973;SDS011;7060;43.770;4.008;2024-01-30T11:53:05;9.90;;;6.20;;
13973;SDS011;7060;43.770;4.008;2024-01-30T11:55:34;6.63;;;5.43;;
13973;SDS011;7060;43.770;4.008;2024-01-30T11:58:04;7.50;;;6.30;;
13973;SDS011;7060;43.770;4.008;2024-01-30T12:00:32;8.10;;;6.47;;
13973;SDS011;7060;43.770;4.008;2024-01-30T12:03:02;11.03;;;6.77;;
13973;SDS011;7060;43.770;4.008;2024-01-30T12:05:33;9.00;;;6.33;;
13973;SDS011;7060;43.770;4.008;2024-01-30T12:08:01;7.67;;;5.20;;
13973;SDS011;7060;43.770;4.008;2024-01-30T12:10:31;7.43;;;4.93;;
13973;SDS011;7060;43.770;4.008;2024-01-30T12:12:59;7.03;;;5.20;;
13973;SDS011;7060;43.770;4.008;2024-01-30T12:15:29;7.10;;;5.47;;
13973;SDS011;7060;43.770;4.008;2024-01-30T12:18:03;9.03;;;5.53;;
13973;SDS011;7060;43.770;4.008;2024-01-30T12:20:33;9.27;;;4.70;;
13973;SDS011;7060;43.770;4.008;2024-01-30T12:23:01;7.43;;;5.83;;
13973;SDS011;7060;43.770;4.008;2024-01-30T12:25:30;8.33;;;6.40;;
13973;SDS011;7060;43.770;4.008;2024-01-30T12:27:59;8.30;;;5.13;;
13973;SDS011;7060;43.770;4.008;2024-01-30T12:30:27;8.97;;;5.30;;
13973;SDS011;7060;43.770;4.008;2024-01-30T12:32:56;6.33;;;5.37;;
13973;SDS011;7060;43.770;4.008;2024-01-30T12:35:24;7.63;;;6.03;;
13973;SDS011;7060;43.770;4.008;2024-01-30T12:37:57;8.00;;;5.67;;
13973;SDS011;7060;43.770;4.008;2024-01-30T12:40:25;9.43;;;5.67;;
13973;SDS011;7060;43.770;4.008;2024-01-30T12:42:55;12.83;;;8.33;;
13973;SDS011;7060;43.770;4.008;2024-01-30T12:45:25;10.03;;;7.07;;
13973;SDS011;7060;43.770;4.008;2024-01-30T12:47:53;8.20;;;5.40;;
13973;SDS011;7060;43.770;4.008;2024-01-30T12:50:22;8.63;;;5.60;;
13973;SDS011;7060;43.770;4.008;2024-01-30T12:52:50;10.53;;;6.63;;
13973;SDS011;7060;43.770;4.008;2024-01-30T12:55:20;12.23;;;5.97;;
13973;SDS011;7060;43.770;4.008;2024-01-30T12:57:48;7.80;;;5.57;;
13973;SDS011;7060;43.770;4.008;2024-01-30T13:00:18;8.60;;;5.60;;
13973;SDS011;7060;43.770;4.008;2024-01-30T13:02:47;11.23;;;6.00;;
13973;SDS011;7060;43.770;4.008;2024-01-30T13:05:15;9.23;;;4.93;;
13973;SDS011;7060;43.770;4.008;2024-01-30T13:07:44;7.53;;;4.40;;
13973;SDS011;7060;43.770;4.008;2024-01-30T13:10:12;6.63;;;4.77;;
13973;SDS011;7060;43.770;4.008;2024-01-30T13:12:40;8.67;;;5.67;;
13973;SDS011;7060;43.770;4.008;2024-01-30T13:15:08;7.10;;;5.20;;
13973;SDS011;7060;43.770;4.008;2024-01-30T13:17:39;9.57;;;4.87;;
13973;SDS011;7060;43.770;4.008;2024-01-30T13:20:09;6.37;;;4.40;;
13973;SDS011;7060;43.770;4.008;2024-01-30T13:22:38;8.07;;;5.07;;
13973;SDS011;7060;43.770;4.008;2024-01-30T13:25:07;7.83;;;4.47;;
13973;SDS011;7060;43.770;4.008;2024-01-30T13:27:35;7.63;;;5.10;;
13973;SDS011;7060;43.770;4.008;2024-01-30T13:30:04;9.03;;;5.13;;
13973;SDS011;7060;43.770;4.008;2024-01-30T13:32:36;10.23;;;4.70;;
13973;SDS011;7060;43.770;4.008;2024-01-30T13:35:05;6.23;;;4.90;;
13973;SDS011;7060;43.770;4.008;2024-01-30T13:37:34;7.37;;;4.53;;
13973;SDS011;7060;43.770;4.008;2024-01-30T13:40:02;7.73;;;4.77;;
13973;SDS011;7060;43.770;4.008;2024-01-30T13:42:37;8.93;;;4.90;;
13973;SDS011;7060;43.770;4.008;2024-01-30T13:45:05;6.90;;;4.57;;
13973;SDS011;7060;43.770;4.008;2024-01-30T13:47:36;6.33;;;4.33;;
13973;SDS011;7060;43.770;4.008;2024-01-30T13:50:06;9.13;;;4.10;;
13973;SDS011;7060;43.770;4.008;2024-01-30T13:52:37;6.93;;;4.27;;
13973;SDS011;7060;43.770;4.008;2024-01-30T13:55:10;6.43;;;3.80;;
13973;SDS011;7060;43.770;4.008;2024-01-30T13:57:39;6.13;;;3.53;;
13973;SDS011;7060;43.770;4.008;2024-01-30T14:00:08;4.87;;;3.37;;
13973;SDS011;7060;43.770;4.008;2024-01-30T14:02:40;10.03;;;3.30;;
13973;SDS011;7060;43.770;4.008;2024-01-30T14:05:10;5.33;;;3.43;;
13973;SDS011;7060;43.770;4.008;2024-01-30T14:07:39;10.30;;;5.57;;
13973;SDS011;7060;43.770;4.008;2024-01-30T14:10:09;5.93;;;3.60;;
13973;SDS011;7060;43.770;4.008;2024-01-30T14:12:41;7.17;;;3.57;;
13973;SDS011;7060;43.770;4.008;2024-01-30T14:15:10;4.67;;;3.20;;
13973;SDS011;7060;43.770;4.008;2024-01-30T14:17:53;6.20;;;3.80;;
13973;SDS011;7060;43.770;4.008;2024-01-30T14:20:22;6.83;;;3.47;;
13973;SDS011;7060;43.770;4.008;2024-01-30T14:22:51;7.27;;;3.37;;
13973;SDS011;7060;43.770;4.008;2024-01-30T14:25:19;13.57;;;3.23;;
13973;SDS011;7060;43.770;4.008;2024-01-30T14:27:54;5.93;;;3.87;;
13973;SDS011;7060;43.770;4.008;2024-01-30T14:30:22;8.23;;;3.57;;
13973;SDS011;7060;43.770;4.008;2024-01-30T14:32:50;7.40;;;3.50;;
13973;SDS011;7060;43.770;4.008;2024-01-30T14:35:19;7.20;;;3.57;;
13973;SDS011;7060;43.770;4.008;2024-01-30T14:37:49;5.33;;;4.17;;
13973;SDS011;7060;43.770;4.008;2024-01-30T14:40:17;6.50;;;4.27;;
13973;SDS011;7060;43.770;4.008;2024-01-30T14:42:45;6.40;;;4.20;;
13973;SDS011;7060;43.770;4.008;2024-01-30T14:45:14;5.97;;;3.33;;
13973;SDS011;7060;43.770;4.008;2024-01-30T14:47:43;7.70;;;4.03;;
13973;SDS011;7060;43.770;4.008;2024-01-30T14:50:11;6.63;;;4.37;;
13973;SDS011;7060;43.770;4.008;2024-01-30T14:52:39;6.97;;;3.77;;
13973;SDS011;7060;43.770;4.008;2024-01-30T14:55:09;6.03;;;4.27;;
13973;SDS011;7060;43.770;4.008;2024-01-30T14:57:37;6.07;;;4.30;;